createdAt,value
2023-01-23T00:00:28.072Z,12.18
2023-01-23T00:03:00.189Z,11.98
2023-01-23T00:05:32.363Z,12.40
2023-01-23T00:08:04.586Z,14.00
2023-01-23T00:10:39.048Z,11.30
2023-01-23T00:13:11.075Z,12.43
2023-01-23T00:15:43.325Z,11.88
2023-01-23T00:18:15.649Z,12.93
2023-01-23T00:20:48.013Z,12.05
2023-01-23T00:23:20.062Z,12.32
2023-01-23T00:25:52.035Z,12.10
2023-01-23T00:28:24.039Z,12.40
2023-01-23T00:31:07.249Z,12.80
2023-01-23T00:33:42.982Z,11.75
2023-01-23T00:36:16.036Z,13.38
2023-01-23T00:38:48.120Z,12.15
2023-01-23T00:41:21.187Z,11.48
2023-01-23T00:43:53.282Z,12.27
2023-01-23T00:46:25.921Z,12.50
2023-01-23T00:48:58.115Z,11.27
2023-01-23T00:51:30.520Z,12.10
2023-01-23T00:54:03.317Z,11.48
2023-01-23T00:56:35.399Z,13.07
2023-01-23T00:59:07.420Z,13.20
2023-01-23T01:01:39.982Z,12.80
2023-01-23T01:04:12.199Z,12.98
2023-01-23T01:06:44.307Z,13.27
2023-01-23T01:09:16.340Z,12.57
2023-01-23T01:11:48.417Z,13.70
2023-01-23T01:14:20.667Z,13.43
2023-01-23T01:16:52.707Z,13.15
2023-01-23T01:19:24.700Z,13.20
2023-01-23T01:21:59.040Z,13.43
2023-01-23T01:24:31.045Z,13.32
2023-01-23T01:27:03.282Z,12.25
2023-01-23T01:29:35.264Z,12.85
2023-01-23T01:32:07.234Z,11.63
2023-01-23T01:34:39.184Z,12.55
2023-01-23T01:37:11.385Z,12.02
2023-01-23T01:39:43.651Z,13.77
2023-01-23T01:42:15.631Z,13.20
2023-01-23T01:45:01.503Z,11.85
2023-01-23T01:47:34.854Z,12.30
2023-01-23T01:50:07.055Z,14.27
2023-01-23T01:52:43.468Z,14.05
2023-01-23T01:55:15.706Z,12.18
2023-01-23T01:57:49.988Z,11.73
2023-01-23T02:00:25.096Z,12.82
2023-01-23T02:03:03.557Z,11.90
2023-01-23T02:05:55.498Z,13.15
2023-01-23T02:09:02.109Z,11.50
2023-01-23T02:11:40.773Z,12.68
2023-01-23T02:14:14.548Z,12.73
2023-01-23T02:16:51.060Z,11.82
2023-01-23T02:19:49.990Z,12.65
2023-01-23T02:22:53.974Z,12.05
2023-01-23T02:25:45.531Z,10.35
2023-01-23T02:28:43.956Z,13.55
2023-01-23T02:31:18.775Z,11.63
2023-01-23T02:33:53.558Z,13.02
2023-01-23T02:36:30.681Z,11.85
2023-01-23T02:39:04.661Z,11.25
2023-01-23T02:41:44.663Z,11.73
2023-01-23T02:44:31.883Z,12.45
2023-01-23T02:47:11.588Z,12.15
2023-01-23T02:49:44.113Z,12.80
2023-01-23T02:52:16.416Z,11.75
2023-01-23T02:54:48.435Z,12.60
2023-01-23T02:57:20.548Z,11.48
2023-01-23T03:00:10.889Z,11.57
2023-01-23T03:02:58.316Z,12.00
2023-01-23T03:05:30.343Z,11.55
2023-01-23T03:08:02.342Z,12.50
2023-01-23T03:10:34.931Z,13.65
2023-01-23T03:13:08.590Z,12.07
2023-01-23T03:15:43.079Z,12.35
2023-01-23T03:18:15.063Z,11.07
2023-01-23T03:20:46.983Z,11.88
2023-01-23T03:23:19.088Z,12.10
2023-01-23T03:25:58.409Z,13.23
2023-01-23T03:28:48.907Z,13.48
2023-01-23T03:31:40.723Z,12.57
2023-01-23T03:34:12.866Z,12.10
2023-01-23T03:36:45.650Z,12.60
2023-01-23T03:39:36.555Z,12.48
2023-01-23T03:42:28.422Z,12.57
2023-01-23T03:45:01.699Z,12.38
2023-01-23T03:47:34.865Z,12.40
2023-01-23T03:50:07.820Z,13.75
2023-01-23T03:52:40.342Z,11.73
2023-01-23T03:55:13.199Z,13.57
2023-01-23T03:57:45.228Z,12.82
2023-01-23T04:00:18.100Z,15.00
2023-01-23T04:02:50.708Z,14.80
2023-01-23T04:05:22.760Z,13.65
2023-01-23T04:07:54.749Z,13.30
2023-01-23T04:10:26.989Z,13.05
2023-01-23T04:13:00.027Z,13.10
2023-01-23T04:15:33.413Z,13.43
2023-01-23T04:18:05.419Z,12.35
2023-01-23T04:20:37.615Z,12.93
2023-01-23T04:23:09.675Z,13.07
2023-01-23T04:25:41.647Z,13.63
2023-01-23T04:28:13.704Z,13.82
2023-01-23T04:30:46.128Z,12.68
2023-01-23T04:33:19.846Z,13.13
2023-01-23T04:36:03.122Z,13.70
2023-01-23T04:38:36.985Z,12.50
2023-01-23T04:41:27.223Z,14.05
2023-01-23T04:44:20.301Z,13.88
2023-01-23T04:46:54.081Z,12.20
2023-01-23T04:49:26.453Z,13.30
2023-01-23T04:51:58.553Z,13.88
2023-01-23T04:54:30.541Z,13.45
2023-01-23T04:57:02.565Z,12.68
2023-01-23T04:59:34.628Z,12.10
2023-01-23T05:02:06.675Z,12.75
2023-01-23T05:04:38.777Z,12.98
2023-01-23T05:07:12.300Z,13.77
2023-01-23T05:09:44.568Z,12.63
2023-01-23T05:12:16.630Z,12.75
2023-01-23T05:14:48.692Z,15.27
2023-01-23T05:17:20.802Z,13.20
2023-01-23T05:19:53.964Z,13.57
2023-01-23T05:22:26.178Z,13.75
2023-01-23T05:24:58.215Z,14.20
2023-01-23T05:27:30.656Z,12.15
2023-01-23T05:30:02.766Z,15.50
2023-01-23T05:32:35.437Z,13.30
2023-01-23T05:35:08.327Z,13.50
2023-01-23T05:37:40.830Z,13.50
2023-01-23T05:40:13.608Z,12.68
2023-01-23T05:42:46.113Z,13.57
2023-01-23T05:45:19.716Z,12.48
2023-01-23T05:47:52.505Z,14.45
2023-01-23T05:50:27.070Z,13.38
2023-01-23T05:52:59.007Z,14.15
2023-01-23T05:55:31.332Z,14.13
2023-01-23T05:58:03.370Z,12.95
2023-01-23T06:00:35.483Z,12.98
2023-01-23T06:03:07.756Z,11.90
2023-01-23T06:05:41.339Z,12.60
2023-01-23T06:08:13.409Z,12.45
2023-01-23T06:10:45.560Z,11.95
2023-01-23T06:13:17.623Z,13.88
2023-01-23T06:15:49.630Z,11.98
2023-01-23T06:18:22.247Z,12.82
2023-01-23T06:21:01.331Z,11.50
2023-01-23T06:23:33.711Z,12.70
2023-01-23T06:26:05.960Z,12.85
2023-01-23T06:28:38.139Z,12.43
2023-01-23T06:31:10.746Z,11.63
2023-01-23T06:33:43.196Z,13.20
2023-01-23T06:36:15.282Z,11.90
2023-01-23T06:38:47.748Z,12.05
2023-01-23T06:41:20.480Z,12.73
2023-01-23T06:43:53.742Z,12.27
2023-01-23T06:46:26.122Z,13.10
2023-01-23T06:48:58.283Z,13.13
2023-01-23T06:51:30.675Z,13.27
2023-01-23T06:54:03.666Z,13.80
2023-01-23T06:56:35.853Z,13.55
2023-01-23T06:59:08.192Z,13.10
2023-01-23T07:01:40.352Z,12.50
2023-01-23T07:04:13.261Z,13.43
2023-01-23T07:06:45.363Z,12.50
2023-01-23T07:09:18.955Z,12.85
2023-01-23T07:11:51.408Z,12.80
2023-01-23T07:14:23.545Z,12.60
2023-01-23T07:16:57.867Z,13.80
2023-01-23T07:19:29.926Z,12.95
2023-01-23T07:22:02.027Z,13.30
2023-01-23T07:24:34.427Z,13.00
2023-01-23T07:27:18.831Z,13.30
2023-01-23T07:29:51.511Z,12.85
2023-01-23T07:32:23.580Z,13.85
2023-01-23T07:34:55.773Z,13.88
2023-01-23T07:37:27.768Z,12.13
2023-01-23T07:39:59.792Z,15.93
2023-01-23T07:42:31.922Z,13.05
2023-01-23T07:45:04.165Z,14.38
2023-01-23T07:47:39.887Z,14.20
2023-01-23T07:50:13.062Z,13.30
2023-01-23T07:52:45.290Z,14.90
2023-01-23T07:55:18.493Z,15.90
2023-01-23T07:57:51.752Z,14.35
2023-01-23T08:00:25.700Z,14.20
2023-01-23T08:03:00.800Z,14.25
2023-01-23T08:05:32.853Z,15.20
2023-01-23T08:08:13.069Z,16.25
2023-01-23T08:10:46.267Z,13.60
2023-01-23T08:16:20.269Z,13.65
2023-01-23T08:18:52.682Z,14.10
2023-01-23T08:21:34.136Z,13.93
2023-01-23T08:24:07.289Z,15.13
2023-01-23T08:26:42.713Z,14.82
2023-01-23T08:29:15.148Z,15.57
2023-01-23T08:31:47.309Z,14.35
2023-01-23T08:34:37.933Z,15.65
2023-01-23T08:37:13.128Z,15.10
2023-01-23T08:39:45.441Z,13.70
2023-01-23T08:42:17.881Z,16.73
2023-01-23T08:44:50.245Z,16.60
2023-01-23T08:47:22.330Z,14.32
2023-01-23T08:49:55.589Z,14.27
2023-01-23T08:52:27.573Z,14.55
2023-01-23T08:55:18.077Z,15.15
2023-01-23T08:57:53.204Z,14.23
2023-01-23T09:00:25.596Z,16.00
2023-01-23T09:03:00.899Z,13.10
2023-01-23T09:05:42.718Z,14.30
2023-01-23T09:08:14.932Z,13.55
2023-01-23T09:10:47.220Z,15.25
2023-01-23T09:13:19.956Z,13.27
2023-01-23T09:15:52.274Z,13.00
2023-01-23T09:18:26.854Z,14.63
2023-01-23T09:20:59.530Z,12.40
2023-01-23T09:23:37.269Z,13.93
2023-01-23T09:26:12.659Z,13.00
2023-01-23T09:28:45.536Z,13.10
2023-01-23T09:31:17.839Z,13.35
2023-01-23T09:33:50.337Z,13.52
2023-01-23T09:36:33.817Z,12.75
2023-01-23T09:39:14.368Z,12.50
2023-01-23T09:41:49.007Z,13.40
2023-01-23T09:44:36.978Z,13.57
2023-01-23T09:47:20.990Z,12.65
2023-01-23T09:50:03.632Z,12.05
2023-01-23T09:52:48.539Z,13.32
2023-01-23T09:56:21.072Z,12.77
2023-01-23T09:59:19.718Z,11.98
2023-01-23T10:02:26.782Z,11.90
2023-01-23T10:05:13.807Z,11.00
2023-01-23T10:08:06.318Z,11.70
2023-01-23T10:11:04.052Z,11.50
2023-01-23T10:14:42.023Z,11.15
2023-01-23T10:18:18.283Z,12.25
2023-01-23T10:21:22.360Z,11.90
2023-01-23T10:24:18.448Z,11.27
2023-01-23T10:27:35.522Z,10.35
2023-01-23T10:30:20.157Z,11.82
2023-01-23T10:33:19.446Z,10.70
2023-01-23T10:36:07.983Z,11.23
2023-01-23T10:39:20.358Z,12.00
2023-01-23T10:42:02.526Z,10.38
2023-01-23T10:44:41.247Z,11.70
2023-01-23T10:47:35.720Z,11.93
2023-01-23T10:50:35.383Z,11.85
2023-01-23T10:53:19.886Z,11.45
2023-01-23T10:55:57.189Z,11.63
2023-01-23T10:58:37.433Z,10.23
2023-01-23T11:01:27.106Z,11.50
2023-01-23T11:04:11.607Z,11.30
2023-01-23T11:07:11.171Z,10.10
2023-01-23T11:09:52.318Z,11.60
2023-01-23T11:12:46.161Z,12.13
2023-01-23T11:15:33.282Z,11.20
2023-01-23T11:18:31.233Z,11.65
2023-01-23T11:21:05.803Z,11.93
2023-01-23T11:24:07.885Z,12.50
2023-01-23T11:27:15.012Z,11.65
2023-01-23T11:30:08.364Z,12.27
2023-01-23T11:33:33.677Z,12.32
2023-01-23T11:36:19.523Z,11.63
2023-01-23T11:39:42.714Z,14.50
2023-01-23T11:42:20.525Z,11.32
2023-01-23T11:44:59.169Z,10.80
2023-01-23T11:47:59.818Z,12.07
2023-01-23T11:51:11.807Z,11.70
2023-01-23T11:54:19.816Z,11.63
2023-01-23T11:57:17.560Z,11.98
2023-01-23T12:00:20.114Z,11.93
2023-01-23T12:03:57.879Z,11.40
2023-01-23T12:07:25.158Z,11.25
2023-01-23T12:10:24.823Z,11.73
2023-01-23T12:13:24.551Z,11.98
2023-01-23T12:16:55.279Z,11.50
2023-01-23T12:19:36.113Z,11.48
2023-01-23T12:22:36.721Z,11.38
2023-01-23T12:25:36.828Z,11.23
2023-01-23T12:28:47.210Z,13.45
2023-01-23T12:31:48.374Z,11.63
2023-01-23T12:34:55.228Z,12.55
2023-01-23T12:37:55.316Z,13.30
2023-01-23T12:40:54.043Z,10.32
2023-01-23T12:44:04.674Z,11.45
2023-01-23T12:46:51.211Z,12.10
2023-01-23T12:49:39.011Z,12.10
2023-01-23T12:52:38.305Z,11.45
2023-01-23T12:55:20.988Z,13.57
2023-01-23T12:58:08.102Z,13.00
2023-01-23T13:01:05.555Z,12.00
2023-01-23T13:04:07.509Z,11.40
2023-01-23T13:07:08.986Z,11.40
2023-01-23T13:10:13.638Z,10.60
2023-01-23T13:13:06.376Z,12.40
2023-01-23T13:15:40.754Z,12.88
2023-01-23T13:18:25.351Z,13.80
2023-01-23T13:21:19.169Z,12.30
2023-01-23T13:24:50.752Z,14.15
2023-01-23T13:28:08.809Z,11.35
2023-01-23T13:31:02.737Z,11.55
2023-01-23T13:33:35.712Z,10.45
2023-01-23T13:36:28.970Z,10.70
2023-01-23T13:39:22.569Z,11.73
2023-01-23T13:42:15.728Z,10.77
2023-01-23T13:45:16.841Z,11.23
2023-01-23T14:22:49.492Z,9.70
2023-01-23T14:25:25.397Z,9.77
2023-01-23T14:28:05.615Z,12.13
2023-01-23T14:30:37.981Z,10.55
2023-01-23T14:33:17.835Z,9.48
2023-01-23T14:35:51.243Z,10.90
2023-01-23T14:38:34.332Z,11.70
2023-01-23T14:41:08.022Z,11.35
2023-01-23T14:43:43.116Z,10.43
2023-01-23T14:46:26.187Z,10.25
2023-01-23T14:49:07.725Z,10.70
2023-01-23T14:51:53.172Z,9.50
2023-01-23T14:58:25.238Z,10.55
2023-01-23T15:00:58.362Z,9.55
2023-01-23T15:03:39.156Z,10.32
2023-01-23T15:06:20.581Z,11.43
2023-01-23T15:08:54.323Z,10.23
2023-01-23T15:11:35.781Z,10.63
2023-01-23T15:14:26.484Z,11.20
2023-01-23T15:17:12.796Z,10.07
2023-01-23T15:19:55.559Z,10.90
2023-01-23T15:22:30.097Z,10.20
2023-01-23T15:25:30.316Z,10.82
2023-01-23T15:28:38.331Z,9.57
2023-01-23T15:31:30.793Z,10.43
2023-01-23T15:34:15.848Z,11.50
2023-01-23T15:37:09.933Z,11.73
2023-01-23T15:40:01.035Z,10.50
2023-01-23T15:43:18.650Z,10.10
2023-01-23T15:45:50.928Z,10.80
2023-01-23T15:48:23.209Z,11.80
2023-01-23T15:50:55.553Z,12.10
2023-01-23T15:53:30.363Z,11.70
2023-01-23T15:56:02.612Z,11.75
2023-01-23T15:58:35.842Z,10.73
2023-01-23T16:01:09.481Z,9.82
2023-01-23T16:03:42.049Z,11.10
2023-01-23T16:06:19.354Z,10.93
2023-01-23T16:09:01.019Z,11.20
2023-01-23T16:15:43.943Z,11.27
2023-01-23T16:18:16.226Z,12.18
2023-01-23T16:20:48.725Z,13.02
2023-01-23T16:23:25.023Z,13.43
2023-01-23T16:25:58.135Z,12.13
2023-01-23T16:28:32.743Z,13.27
2023-01-23T16:31:05.171Z,13.43
2023-01-23T16:33:37.637Z,14.82
2023-01-23T16:36:20.248Z,12.77
2023-01-23T16:38:56.200Z,15.00
2023-01-23T16:41:29.091Z,13.57
2023-01-23T16:44:01.336Z,13.38
2023-01-23T16:46:33.769Z,14.23
2023-01-23T16:49:06.417Z,13.85
2023-01-23T16:51:41.103Z,13.95
2023-01-23T16:54:21.620Z,12.80
2023-01-23T16:56:57.399Z,13.68
2023-01-23T16:59:39.089Z,13.52
2023-01-23T17:02:21.758Z,13.65
2023-01-23T17:04:59.360Z,12.32
2023-01-23T17:07:32.073Z,12.35
2023-01-23T17:10:05.282Z,12.43
2023-01-23T17:12:38.925Z,13.18
2023-01-23T17:15:24.300Z,11.95
2023-01-23T17:18:01.315Z,12.55
2023-01-23T17:20:34.569Z,13.25
2023-01-23T17:23:07.061Z,13.85
2023-01-23T17:25:59.656Z,13.63
2023-01-23T17:28:32.894Z,12.82
2023-01-23T17:31:06.101Z,11.98
2023-01-23T17:33:46.824Z,12.20
2023-01-23T17:36:20.009Z,12.55
2023-01-23T17:38:55.728Z,11.95
2023-01-23T17:41:29.536Z,13.13
2023-01-23T17:44:02.946Z,15.45
2023-01-23T17:46:37.772Z,13.32
2023-01-23T17:49:27.661Z,11.60
2023-01-23T17:52:01.699Z,12.77
2023-01-23T17:54:34.928Z,12.02
2023-01-23T17:57:08.807Z,12.18
2023-01-23T17:59:41.674Z,12.40
2023-01-23T18:02:28.745Z,12.80
2023-01-23T18:05:01.464Z,12.35
2023-01-23T18:07:48.461Z,11.32
2023-01-23T18:10:29.655Z,12.68
2023-01-23T18:13:27.278Z,10.60
2023-01-23T18:16:11.847Z,13.38
2023-01-23T18:19:01.020Z,11.45
2023-01-23T18:21:49.391Z,13.13
2023-01-23T18:24:31.250Z,12.43
2023-01-23T18:27:24.463Z,10.18
2023-01-23T18:30:09.446Z,12.75
2023-01-23T18:33:29.727Z,11.75
2023-01-23T18:36:48.249Z,12.40
2023-01-23T18:39:55.695Z,12.95
2023-01-23T18:43:04.644Z,12.38
2023-01-23T18:45:56.948Z,12.10
2023-01-23T18:48:30.238Z,11.63
2023-01-23T18:51:18.055Z,11.20
2023-01-23T18:54:22.810Z,11.93
2023-01-23T18:57:50.865Z,11.05
2023-01-23T19:00:54.302Z,12.05
2023-01-23T19:03:48.551Z,10.82
2023-01-23T19:06:24.820Z,11.52
2023-01-23T19:09:03.051Z,13.40
2023-01-23T19:12:14.039Z,12.15
2023-01-23T19:15:44.913Z,10.95
2023-01-23T19:18:48.601Z,12.80
2023-01-23T19:21:32.253Z,12.82
2023-01-23T19:24:12.378Z,12.35
2023-01-23T19:26:50.426Z,11.43
2023-01-23T19:29:24.016Z,10.93
2023-01-23T19:32:06.264Z,11.60
2023-01-23T19:34:43.092Z,11.32
2023-01-23T19:37:15.859Z,11.60
2023-01-23T19:39:49.396Z,12.15
2023-01-23T19:42:22.346Z,12.70
2023-01-23T19:44:55.908Z,11.20
2023-01-23T19:47:28.381Z,16.30
2023-01-23T19:50:01.581Z,13.13
2023-01-23T19:52:35.137Z,12.27
2023-01-23T19:55:22.669Z,12.52
2023-01-23T19:57:59.396Z,13.13
2023-01-23T20:00:38.321Z,11.07
2023-01-23T20:03:14.583Z,13.95
2023-01-23T20:05:47.055Z,13.32
2023-01-23T20:08:19.387Z,11.23
2023-01-23T20:10:52.897Z,14.27
2023-01-23T20:13:25.939Z,12.25
2023-01-23T20:15:59.169Z,12.80
2023-01-23T20:18:38.178Z,12.70
2023-01-23T20:21:11.157Z,12.60
2023-01-23T20:23:43.810Z,13.15
2023-01-23T20:26:23.328Z,14.20
2023-01-23T20:28:58.278Z,12.85
2023-01-23T20:31:31.550Z,13.10
2023-01-23T20:34:04.341Z,12.55
2023-01-23T20:36:38.678Z,12.48
2023-01-23T20:39:13.478Z,11.95
2023-01-23T20:41:46.727Z,14.70
2023-01-23T20:44:19.088Z,13.18
2023-01-23T20:46:51.799Z,12.57
2023-01-23T20:49:24.756Z,12.77
2023-01-23T20:52:18.258Z,13.30
2023-01-23T20:55:10.427Z,14.13
2023-01-23T20:58:01.834Z,13.80
2023-01-23T21:00:53.916Z,13.80
2023-01-23T21:03:26.915Z,14.32
2023-01-23T21:05:59.662Z,14.85
2023-01-23T21:08:32.622Z,14.23
2023-01-23T21:11:12.329Z,13.50
2023-01-23T21:13:51.789Z,13.57
2023-01-23T21:16:25.768Z,13.68
2023-01-23T21:18:58.294Z,14.38
2023-01-23T21:21:32.629Z,13.85
2023-01-23T21:24:05.496Z,15.30
2023-01-23T21:26:38.582Z,15.10
2023-01-23T21:29:11.365Z,15.18
2023-01-23T21:31:43.909Z,14.85
2023-01-23T21:34:16.122Z,15.25
2023-01-23T21:36:48.213Z,14.73
2023-01-23T21:39:22.211Z,14.15
2023-01-23T21:41:54.423Z,14.60
2023-01-23T21:48:15.787Z,13.95
2023-01-23T21:50:48.074Z,14.07
2023-01-23T21:53:20.696Z,14.52
2023-01-23T21:55:53.099Z,14.15
2023-01-23T21:58:25.335Z,13.60
2023-01-23T22:01:46.783Z,14.45
2023-01-23T22:04:23.620Z,12.65
2023-01-23T22:06:58.619Z,15.18
2023-01-23T22:09:31.127Z,14.48
2023-01-23T22:12:03.544Z,14.38
2023-01-23T22:14:36.704Z,14.20
2023-01-23T22:17:09.727Z,14.57
2023-01-23T22:19:43.923Z,13.02
2023-01-23T22:22:16.257Z,13.50
2023-01-23T22:24:50.572Z,15.55
2023-01-23T22:27:23.381Z,14.70
2023-01-23T22:29:55.477Z,14.05
2023-01-23T22:32:27.844Z,15.27
2023-01-23T22:35:00.299Z,15.32
2023-01-23T22:37:32.712Z,15.70
2023-01-23T22:40:05.623Z,14.40
2023-01-23T22:42:38.961Z,14.93
2023-01-23T22:45:11.569Z,14.65
2023-01-23T22:47:43.965Z,15.50
2023-01-23T22:50:17.097Z,13.82
2023-01-23T22:52:49.386Z,14.55
2023-01-23T22:55:21.654Z,14.80
2023-01-23T22:57:53.856Z,15.43
2023-01-23T23:00:25.964Z,15.48
2023-01-23T23:02:58.033Z,14.20
2023-01-23T23:05:30.160Z,14.82
2023-01-23T23:08:02.157Z,13.50
2023-01-23T23:10:34.324Z,15.13
2023-01-23T23:13:06.656Z,13.55
2023-01-23T23:15:38.711Z,15.57
2023-01-23T23:18:10.835Z,14.73
2023-01-23T23:20:42.922Z,15.35
2023-01-23T23:23:15.021Z,15.30
2023-01-23T23:25:47.203Z,14.23
2023-01-23T23:28:25.227Z,14.52
2023-01-23T23:30:58.351Z,15.25
2023-01-23T23:33:31.008Z,15.02
2023-01-23T23:36:20.676Z,15.88
2023-01-23T23:38:52.732Z,15.35
2023-01-23T23:41:24.974Z,14.85
2023-01-23T23:43:57.229Z,15.32
2023-01-23T23:46:29.446Z,15.32
2023-01-23T23:49:01.606Z,14.95
2023-01-23T23:51:33.973Z,15.52
2023-01-23T23:54:06.064Z,15.63
2023-01-23T23:56:38.219Z,15.85
2023-01-23T23:59:15.985Z,14.05
